createdAt,value
2018-01-02T00:00:10.732Z,10.70
2018-01-02T00:01:36.412Z,12.30
2018-01-02T00:02:10.738Z,9.60
2018-01-02T00:03:10.736Z,9.70
2018-01-02T00:04:11.873Z,11.60
2018-01-02T00:05:10.743Z,13.10
2018-01-02T00:06:12.789Z,10.10
2018-01-02T00:07:10.748Z,10.40
2018-01-02T00:08:22.428Z,10.20
2018-01-02T00:09:10.761Z,8.40
2018-01-02T00:10:11.796Z,8.90
2018-01-02T00:11:10.762Z,10.30
2018-01-02T00:12:16.412Z,10.10
2018-01-02T00:13:10.772Z,8.50
2018-01-02T00:14:10.793Z,9.20
2018-01-02T00:15:10.780Z,7.40
2018-01-02T00:16:35.484Z,7.00
2018-01-02T00:17:10.779Z,9.80
2018-01-02T00:18:10.782Z,8.20
2018-01-02T00:19:31.797Z,8.70
2018-01-02T00:20:10.783Z,8.00
2018-01-02T00:21:10.792Z,8.60
2018-01-02T00:22:17.403Z,7.60
2018-01-02T00:23:10.794Z,11.60
2018-01-02T00:24:27.448Z,7.60
2018-01-02T00:25:10.800Z,7.60
2018-01-02T00:26:11.902Z,8.30
2018-01-02T00:27:10.808Z,7.60
2018-01-02T00:28:10.886Z,9.50
2018-01-02T00:29:10.809Z,8.20
2018-01-02T00:30:10.901Z,7.60
2018-01-02T00:31:10.817Z,6.90
2018-01-02T00:32:10.917Z,6.60
2018-01-02T00:33:10.814Z,8.70
2018-01-02T00:34:21.477Z,7.00
2018-01-02T00:35:10.827Z,8.90
2018-01-02T00:36:10.835Z,7.50
2018-01-02T00:37:10.836Z,9.10
2018-01-02T00:38:10.854Z,7.90
2018-01-02T00:39:10.840Z,9.10
2018-01-02T00:40:10.864Z,8.30
2018-01-02T00:41:10.841Z,8.90
2018-01-02T00:42:17.435Z,9.70
2018-01-02T00:43:10.847Z,11.70
2018-01-02T00:44:46.421Z,8.40
2018-01-02T00:45:10.861Z,8.20
2018-01-02T00:46:10.854Z,11.70
2018-01-02T00:47:17.470Z,8.50
2018-01-02T00:48:10.859Z,11.20
2018-01-02T00:49:16.453Z,9.60
2018-01-02T00:50:10.867Z,6.60
2018-01-02T00:51:15.450Z,7.20
2018-01-02T00:52:10.873Z,6.90
2018-01-02T00:53:11.981Z,10.70
2018-01-02T00:54:10.877Z,7.80
2018-01-02T00:55:35.443Z,8.20
2018-01-02T00:56:10.886Z,8.80
2018-01-02T00:57:17.435Z,10.80
2018-01-02T00:58:10.899Z,8.60
2018-01-02T00:59:22.464Z,8.20
2018-01-02T01:00:10.892Z,9.50
2018-01-02T01:01:12.957Z,9.10
2018-01-02T01:02:10.898Z,7.70
2018-01-02T01:03:12.974Z,7.20
2018-01-02T01:04:10.908Z,8.40
2018-01-02T01:58:41.189Z,8.00
2018-01-02T01:59:39.358Z,10.20
2018-01-02T02:00:39.333Z,11.00
2018-01-02T02:01:39.373Z,9.80
2018-01-02T02:02:39.339Z,9.60
2018-01-02T02:03:40.414Z,15.70
2018-01-02T02:04:39.353Z,9.00
2018-01-02T02:05:39.403Z,9.00
2018-01-02T02:06:39.382Z,12.20
2018-01-02T02:07:39.364Z,10.20
2018-01-02T02:08:39.422Z,8.30
2018-01-02T02:09:39.376Z,7.00
2018-01-02T02:10:39.460Z,8.10
2018-01-02T02:11:39.361Z,7.00
2018-01-02T02:12:44.268Z,8.00
2018-01-02T02:13:39.379Z,6.80
2018-01-02T02:14:44.292Z,8.20
2018-01-02T02:15:39.380Z,11.90
2018-01-02T02:16:50.232Z,9.60
2018-01-02T02:17:39.371Z,7.00
2018-01-02T02:19:07.247Z,6.90
2018-01-02T02:19:39.387Z,6.20
2018-01-02T02:20:39.390Z,7.60
2018-01-02T02:22:08.297Z,7.80
2018-01-02T02:22:39.402Z,6.10
2018-01-02T02:23:45.264Z,8.10
2018-01-02T02:24:39.394Z,5.70
2018-01-02T02:25:40.470Z,5.00
2018-01-02T02:26:39.400Z,5.90
2018-01-02T02:27:51.235Z,5.40
2018-01-02T02:28:39.414Z,3.80
2018-01-02T02:29:44.284Z,7.20
2018-01-02T02:30:39.415Z,5.50
2018-01-02T02:31:41.538Z,6.70
2018-01-02T02:32:39.413Z,6.70
2018-01-02T02:34:05.305Z,5.90
2018-01-02T02:34:39.414Z,7.20
2018-01-02T02:35:39.427Z,8.00
2018-01-02T02:36:54.262Z,9.50
2018-01-02T02:37:39.431Z,5.80
2018-01-02T02:39:05.230Z,6.30
2018-01-02T02:39:39.438Z,6.60
2018-01-02T02:40:44.248Z,5.40
2018-01-02T02:41:39.445Z,6.20
2018-01-02T02:42:41.499Z,5.10
2018-01-02T02:43:39.444Z,10.00
2018-01-02T02:44:39.474Z,8.10
2018-01-02T02:45:39.450Z,6.50
2018-01-02T02:46:39.464Z,7.80
2018-01-02T02:47:39.483Z,5.70
2018-01-02T02:48:39.452Z,6.10
2018-01-02T02:50:12.265Z,4.80
2018-01-02T02:50:39.459Z,8.80
2018-01-02T02:51:46.269Z,6.50
2018-01-02T02:52:39.464Z,5.90
2018-01-02T02:53:41.574Z,7.20
2018-01-02T02:54:39.477Z,6.00
2018-01-02T02:55:39.540Z,5.40
2018-01-02T02:56:39.473Z,9.20
2018-01-02T02:58:12.217Z,6.80
2018-01-02T02:58:39.487Z,7.30
2018-01-02T02:59:39.482Z,8.00
2018-01-02T03:00:55.241Z,5.70
2018-01-02T03:01:39.490Z,7.60
2018-01-02T03:02:40.508Z,8.20
2018-01-02T03:03:39.501Z,8.50
2018-01-02T03:04:50.252Z,6.90
2018-01-02T03:05:39.510Z,6.70
2018-01-02T03:06:41.553Z,5.40
2018-01-02T03:07:39.498Z,7.00
2018-01-02T03:08:40.553Z,7.20
2018-01-02T03:09:39.508Z,9.70
2018-01-02T03:10:45.276Z,8.50
2018-01-02T03:11:39.534Z,10.30
2018-01-02T03:12:41.605Z,8.30
2018-01-02T03:13:39.527Z,10.40
2018-01-02T03:14:39.567Z,8.90
2018-01-02T03:15:39.524Z,10.70
2018-01-02T03:16:44.286Z,12.10
2018-01-02T03:17:39.529Z,9.20
2018-01-02T03:18:39.536Z,10.30
2018-01-02T03:19:39.535Z,7.50
2018-01-02T03:20:44.224Z,10.60
2018-01-02T03:21:39.540Z,11.40
2018-01-02T03:22:39.621Z,8.60
2018-01-02T03:23:39.545Z,11.00
2018-01-02T03:24:39.629Z,11.60
2018-01-02T03:25:39.551Z,12.40
2018-01-02T03:26:41.594Z,13.00
2018-01-02T03:27:39.553Z,11.60
2018-01-02T03:28:41.614Z,9.80
2018-01-02T03:29:39.565Z,10.60
2018-01-02T03:30:44.286Z,12.40
2018-01-02T03:31:39.553Z,10.60
2018-01-02T03:32:40.612Z,13.00
2018-01-02T03:33:39.570Z,15.40
2018-01-02T03:34:44.208Z,9.90
2018-01-02T03:35:39.578Z,12.70
2018-01-02T03:37:00.609Z,11.50
2018-01-02T03:37:39.575Z,11.40
2018-01-02T03:38:51.300Z,15.70
2018-01-02T03:39:39.569Z,13.00
2018-01-02T03:40:39.643Z,11.30
2018-01-02T03:41:39.605Z,10.90
2018-01-02T03:42:44.263Z,14.80
2018-01-02T03:43:39.592Z,14.00
2018-01-02T03:44:39.672Z,14.20
2018-01-02T03:45:39.596Z,11.90
2018-01-02T03:46:39.682Z,13.40
2018-01-02T03:47:39.603Z,11.90
2018-01-02T03:48:52.308Z,15.20
2018-01-02T03:49:39.606Z,12.10
2018-01-02T03:50:39.708Z,13.80
2018-01-02T03:51:39.620Z,12.20
2018-01-02T03:52:39.727Z,15.20
2018-01-02T03:53:39.610Z,15.70
2018-01-02T03:54:39.632Z,16.10
2018-01-02T03:55:39.628Z,16.80
2018-01-02T03:56:39.669Z,15.20
2018-01-02T03:57:39.619Z,17.60
2018-01-02T03:58:39.665Z,13.60
2018-01-02T03:59:39.626Z,15.20
2018-01-02T04:01:00.645Z,15.20
2018-01-02T04:01:39.634Z,14.90
2018-01-02T04:02:39.639Z,14.90
2018-01-02T04:03:41.743Z,16.10
2018-01-02T04:04:39.638Z,15.30
2018-01-02T04:05:41.756Z,17.70
2018-01-02T04:06:39.643Z,15.70
2018-01-02T04:07:52.213Z,20.40
2018-01-02T04:08:39.645Z,14.50
2018-01-02T04:09:39.738Z,17.40
2018-01-02T04:10:39.660Z,17.30
2018-01-02T04:11:39.773Z,19.70
2018-01-02T04:12:39.670Z,22.40
2018-01-02T04:13:39.757Z,16.20
2018-01-02T04:14:39.661Z,18.80
2018-01-02T04:15:39.778Z,18.40
2018-01-02T04:16:39.672Z,18.10
2018-01-02T04:17:39.789Z,21.40
2018-01-02T04:18:39.677Z,19.30
2018-01-02T04:19:39.707Z,20.40
2018-01-02T04:20:39.673Z,19.80
2018-01-02T04:21:40.737Z,24.30
2018-01-02T04:22:39.674Z,21.60
2018-01-02T04:23:40.749Z,21.90
2018-01-02T04:24:39.690Z,20.40
2018-01-02T04:25:39.747Z,21.40
2018-01-02T04:26:39.694Z,22.70
2018-01-02T04:27:46.310Z,18.90
2018-01-02T04:28:39.716Z,19.70
2018-01-02T04:29:39.771Z,22.00
2018-01-02T04:30:39.695Z,24.50
2018-01-02T04:31:40.810Z,25.30
2018-01-02T04:32:39.704Z,19.90
2018-01-02T04:33:39.799Z,21.80
2018-01-02T04:34:39.705Z,24.80
2018-01-02T04:35:41.757Z,22.60
2018-01-02T04:36:39.725Z,28.70
2018-01-02T04:37:40.751Z,29.20
2018-01-02T04:38:39.725Z,22.50
2018-01-02T04:39:39.816Z,20.70
2018-01-02T04:40:39.724Z,24.80
2018-01-02T04:41:39.824Z,25.00
2018-01-02T04:42:39.738Z,22.30
2018-01-02T04:43:39.848Z,22.50
2018-01-02T04:44:39.737Z,22.00
2018-01-02T04:45:39.756Z,25.70
2018-01-02T04:46:39.752Z,21.00
2018-01-02T04:47:39.769Z,24.10
2018-01-02T04:48:39.749Z,25.40
2018-01-02T04:49:39.784Z,29.90
2018-01-02T04:50:39.752Z,23.40
2018-01-02T04:51:39.795Z,25.60
2018-01-02T04:52:39.751Z,27.20
2018-01-02T04:53:39.811Z,28.10
2018-01-02T04:54:39.763Z,29.60
2018-01-02T04:55:39.825Z,24.80
2018-01-02T04:56:39.765Z,25.60
2018-01-02T04:57:39.836Z,27.20
2018-01-02T04:58:39.772Z,33.70
2018-01-02T04:59:39.850Z,26.00
2018-01-02T05:00:39.770Z,26.20
2018-01-02T05:01:39.863Z,24.90
2018-01-02T05:02:39.783Z,27.40
2018-01-02T05:03:39.886Z,29.30
2018-01-02T05:04:39.778Z,29.20
2018-01-02T05:05:39.898Z,27.10
2018-01-02T05:06:39.781Z,28.60
2018-01-02T05:07:39.805Z,30.90
2018-01-02T05:08:39.788Z,28.20
2018-01-02T05:09:39.814Z,27.30
2018-01-02T05:10:39.795Z,31.20
2018-01-02T05:11:39.834Z,31.90
2018-01-02T05:12:39.798Z,31.30
2018-01-02T05:13:39.846Z,24.70
2018-01-02T05:14:39.805Z,27.10
2018-01-02T05:15:40.890Z,27.10
2018-01-02T05:16:39.819Z,25.30
2018-01-02T05:17:39.878Z,27.80
2018-01-02T05:18:39.815Z,29.00
2018-01-02T05:19:39.882Z,30.90
2018-01-02T05:20:39.817Z,28.60
2018-01-02T05:21:39.890Z,28.60
2018-01-02T05:22:39.820Z,27.20
2018-01-02T05:23:39.916Z,26.00
2018-01-02T05:24:39.823Z,30.20
2018-01-02T05:25:39.923Z,25.10
2018-01-02T05:26:39.831Z,29.70
2018-01-02T05:27:39.942Z,31.50
2018-01-02T05:28:39.839Z,29.30
2018-01-02T05:29:39.851Z,28.80
2018-01-02T05:30:39.842Z,28.60
2018-01-02T05:31:39.861Z,31.30
2018-01-02T05:32:39.845Z,31.70
2018-01-02T05:33:39.877Z,28.80
2018-01-02T05:34:39.857Z,29.60
2018-01-02T05:35:39.892Z,33.50
2018-01-02T05:36:39.855Z,33.50
2018-01-02T05:37:40.923Z,38.50
2018-01-02T05:38:39.857Z,34.20
2018-01-02T05:39:39.919Z,31.10
2018-01-02T05:40:39.862Z,29.10
2018-01-02T05:41:39.935Z,35.20
2018-01-02T05:42:39.868Z,33.00
2018-01-02T05:43:39.944Z,32.20
2018-01-02T05:44:39.877Z,33.20
2018-01-02T05:45:39.959Z,35.30
2018-01-02T05:46:39.880Z,30.40
2018-01-02T05:47:39.970Z,34.80
2018-01-02T05:48:39.877Z,34.60
2018-01-02T05:49:39.987Z,37.20
2018-01-02T05:50:39.889Z,34.80
2018-01-02T05:51:39.995Z,35.40
2018-01-02T05:52:39.898Z,37.40
2018-01-02T05:53:39.916Z,32.70
2018-01-02T05:54:39.894Z,37.00
2018-01-02T05:55:39.929Z,34.10
2018-01-02T05:56:41.106Z,31.70
2018-01-02T05:57:39.937Z,38.30
2018-01-02T05:58:39.905Z,33.80
2018-01-02T05:59:39.949Z,29.90
2018-01-02T06:00:39.905Z,33.60
2018-01-02T06:01:39.962Z,35.00
2018-01-02T06:02:39.923Z,32.60
2018-01-02T06:03:39.979Z,31.70
2018-01-02T06:04:39.922Z,35.30
2018-01-02T06:05:39.993Z,35.60
2018-01-02T06:06:39.928Z,32.20
2018-01-02T06:07:41.028Z,30.50
2018-01-02T06:08:39.921Z,35.80
2018-01-02T06:09:40.020Z,35.00
2018-01-02T06:10:39.926Z,33.00
2018-01-02T06:11:40.032Z,37.70
2018-01-02T06:12:39.936Z,32.50
2018-01-02T06:13:40.046Z,34.30
2018-01-02T06:14:39.938Z,32.40
2018-01-02T06:15:39.959Z,33.00
2018-01-02T06:16:39.946Z,30.60
2018-01-02T06:17:39.972Z,37.20
2018-01-02T06:18:39.955Z,33.70
2018-01-02T06:19:39.986Z,35.30
2018-01-02T06:20:39.950Z,34.20
2018-01-02T06:21:39.996Z,34.00
2018-01-02T06:22:39.956Z,30.50
2018-01-02T06:23:40.011Z,35.60
2018-01-02T06:24:39.958Z,35.00
2018-01-02T06:25:40.032Z,34.80
2018-01-02T06:26:39.967Z,36.50
2018-01-02T06:27:40.033Z,31.90
2018-01-02T06:28:39.970Z,40.70
2018-01-02T06:29:40.054Z,31.40
2018-01-02T06:30:39.985Z,30.90
2018-01-02T06:31:40.067Z,38.20
2018-01-02T06:32:39.981Z,37.30
2018-01-02T06:33:40.077Z,37.40
2018-01-02T06:34:39.978Z,33.00
2018-01-02T06:35:40.090Z,34.20
2018-01-02T06:36:39.985Z,31.70
2018-01-02T06:37:40.004Z,31.50
2018-01-02T06:38:39.991Z,30.70
2018-01-02T06:39:40.015Z,33.20
2018-01-02T06:40:40.048Z,33.30
2018-01-02T06:41:41.058Z,35.80
2018-01-02T06:42:40.003Z,31.00
2018-01-02T06:43:40.044Z,32.80
2018-01-02T06:44:40.004Z,35.10
2018-01-02T06:45:40.064Z,30.80
2018-01-02T06:46:40.010Z,36.60
2018-01-02T06:47:40.081Z,35.30
2018-01-02T06:48:40.016Z,30.80
2018-01-02T06:49:40.092Z,33.50
2018-01-02T06:50:40.025Z,34.60
2018-01-02T06:51:40.114Z,36.70
2018-01-02T06:52:40.024Z,32.30
2018-01-02T06:53:40.109Z,31.20
2018-01-02T06:54:40.026Z,39.60
2018-01-02T06:55:40.129Z,32.80
2018-01-02T06:56:40.033Z,34.10
2018-01-02T06:57:40.143Z,35.40
2018-01-02T06:58:40.047Z,32.50
2018-01-02T06:59:40.053Z,34.30
2018-01-02T07:00:40.039Z,34.00
2018-01-02T07:01:40.070Z,37.10
2018-01-02T07:02:40.043Z,36.00
2018-01-02T07:03:40.082Z,33.80
2018-01-02T07:04:40.049Z,38.30
2018-01-02T07:05:40.093Z,41.50
2018-01-02T07:06:40.052Z,38.20
2018-01-02T07:07:40.109Z,33.60
2018-01-02T07:08:40.061Z,33.90
2018-01-02T07:09:40.125Z,33.70
2018-01-02T07:10:40.059Z,33.00
2018-01-02T07:11:40.135Z,34.80
2018-01-02T07:12:40.067Z,34.90
2018-01-02T07:13:40.079Z,39.60
2018-01-02T07:14:40.067Z,35.40
2018-01-02T07:15:40.084Z,35.70
2018-01-02T07:16:40.075Z,32.80
2018-01-02T07:17:40.081Z,35.90
2018-01-02T07:18:40.081Z,36.50
2018-01-02T07:19:40.088Z,38.30
2018-01-02T07:20:40.079Z,34.40
2018-01-02T07:21:40.093Z,35.80
2018-01-02T07:22:40.090Z,38.50
2018-01-02T07:23:40.090Z,36.40
2018-01-02T07:24:40.094Z,35.90
2018-01-02T07:25:40.091Z,37.70
2018-01-02T07:26:40.086Z,36.40
2018-01-02T07:27:40.102Z,34.40
2018-01-02T07:28:40.099Z,37.40
2018-01-02T07:29:40.105Z,36.80
2018-01-02T07:30:40.112Z,33.60
2018-01-02T07:31:40.112Z,34.90
2018-01-02T07:32:40.112Z,34.50
2018-01-02T07:33:40.119Z,34.20
2018-01-02T07:34:40.111Z,35.20
2018-01-02T07:35:40.121Z,31.10
2018-01-02T07:36:40.111Z,30.10
2018-01-02T07:37:40.122Z,35.90
2018-01-02T07:38:40.119Z,30.20
2018-01-02T07:39:40.125Z,32.00
2018-01-02T07:40:40.122Z,29.20
2018-01-02T07:41:40.133Z,30.70
2018-01-02T07:42:40.128Z,30.10
2018-01-02T07:43:40.137Z,27.40
2018-01-02T07:44:40.152Z,27.90
2018-01-02T07:45:40.134Z,27.50
2018-01-02T07:46:40.141Z,26.40
2018-01-02T07:47:40.143Z,29.70
2018-01-02T07:48:40.144Z,30.60
2018-01-02T07:49:40.143Z,31.40
2018-01-02T07:50:40.151Z,27.20
2018-01-02T07:51:41.720Z,32.70
2018-01-02T07:52:41.734Z,31.00
2018-01-02T07:53:40.737Z,29.80
2018-01-02T07:54:40.155Z,30.90
2018-01-02T07:55:40.164Z,27.00
2018-01-02T07:56:40.158Z,30.30
2018-01-02T07:57:40.161Z,29.50
2018-01-02T07:58:41.165Z,29.50
2018-01-02T07:59:40.166Z,25.70
2018-01-02T08:00:40.170Z,26.90
2018-01-02T08:01:46.735Z,32.10
2018-01-02T08:02:40.174Z,25.80
2018-01-02T08:03:40.186Z,28.40
2018-01-02T08:04:40.180Z,26.80
2018-01-02T08:05:44.760Z,31.40
2018-01-02T08:06:40.186Z,26.10
2018-01-02T08:07:40.189Z,24.90
2018-01-02T08:08:40.182Z,29.50
2018-01-02T08:09:40.190Z,28.70
2018-01-02T08:10:40.188Z,29.50
2018-01-02T08:11:40.189Z,29.90
2018-01-02T08:12:40.192Z,25.80
2018-01-02T08:13:41.205Z,27.30
2018-01-02T08:14:40.202Z,28.00
2018-01-02T08:15:44.743Z,24.40
2018-01-02T08:16:40.255Z,23.60
2018-01-02T08:17:44.836Z,24.10
2018-01-02T08:18:40.207Z,23.50
2018-01-02T08:19:40.235Z,24.60
2018-01-02T08:20:40.207Z,25.40
2018-01-02T08:21:42.297Z,20.30
2018-01-02T08:22:40.212Z,25.10
2018-01-02T08:23:46.815Z,27.90
2018-01-02T08:24:40.222Z,23.70
2018-01-02T08:25:45.792Z,24.50
2018-01-02T08:26:40.237Z,23.10
2018-01-02T08:27:40.284Z,25.10
2018-01-02T08:28:40.243Z,30.40
2018-01-02T08:29:41.327Z,24.70
2018-01-02T08:30:40.229Z,23.80
2018-01-02T08:31:44.736Z,23.60
2018-01-02T08:32:40.232Z,28.20
2018-01-02T08:33:42.290Z,24.80
2018-01-02T08:34:40.240Z,22.40
2018-01-02T08:35:40.237Z,24.60
2018-01-02T08:36:40.245Z,23.00
2018-01-02T08:37:41.259Z,25.30
2018-01-02T08:38:40.245Z,19.80
2018-01-02T08:39:42.257Z,20.40
2018-01-02T08:40:40.253Z,24.10
2018-01-02T08:41:41.258Z,24.80
2018-01-02T08:42:40.258Z,27.30
2018-01-02T08:43:41.261Z,25.80
2018-01-02T08:44:40.255Z,24.10
2018-01-02T08:45:41.267Z,24.60
2018-01-02T08:46:40.269Z,26.80
2018-01-02T08:47:41.272Z,19.90
2018-01-02T08:48:40.271Z,25.40
2018-01-02T08:49:40.271Z,22.50
2018-01-02T08:50:40.273Z,24.70
2018-01-02T08:51:40.276Z,21.40
2018-01-02T08:52:40.281Z,25.30
2018-01-02T08:53:42.291Z,25.30
2018-01-02T08:54:40.285Z,21.30
2018-01-02T08:55:45.250Z,31.10
2018-01-02T08:56:40.286Z,19.60
2018-01-02T08:57:40.308Z,23.10
2018-01-02T08:58:40.291Z,24.50
2018-01-02T08:59:46.245Z,21.40
2018-01-02T09:00:40.293Z,21.50
2018-01-02T09:01:41.310Z,23.20
2018-01-02T09:02:40.300Z,19.20
2018-01-02T09:03:41.326Z,18.90
2018-01-02T09:04:40.305Z,22.00
2018-01-02T09:05:42.312Z,17.50
2018-01-02T09:06:40.301Z,20.70
2018-01-02T09:07:42.318Z,19.80
2018-01-02T09:08:40.312Z,22.80
2018-01-02T09:09:40.324Z,19.70
2018-01-02T09:10:40.320Z,19.60
2018-01-02T09:11:40.324Z,18.80
2018-01-02T09:12:40.319Z,20.00
2018-01-02T09:13:41.322Z,18.90
2018-01-02T09:14:40.326Z,19.80
2018-01-02T09:15:41.330Z,18.50
2018-01-02T09:16:40.333Z,16.50
2018-01-02T09:17:40.343Z,22.90
2018-01-02T09:18:40.335Z,17.40
2018-01-02T09:19:41.340Z,19.30
2018-01-02T09:20:40.337Z,23.40
2018-01-02T09:21:40.351Z,22.00
2018-01-02T09:22:40.340Z,19.40
2018-01-02T09:28:28.352Z,18.10
2018-01-02T09:29:20.924Z,22.00
2018-01-02T09:30:21.928Z,15.00
2018-01-02T09:31:20.939Z,16.20
2018-01-02T09:32:22.942Z,15.70
2018-01-02T09:33:20.931Z,19.60
2018-01-02T09:34:37.797Z,16.50
2018-01-02T09:35:20.936Z,16.30
2018-01-02T09:36:35.799Z,14.20
2018-01-02T09:37:20.945Z,18.50
2018-01-02T09:38:21.959Z,19.40
2018-01-02T09:39:20.948Z,18.10
2018-01-02T09:40:35.791Z,19.40
2018-01-02T09:41:20.954Z,15.30
2018-01-02T09:42:22.061Z,19.80
2018-01-02T09:43:20.953Z,15.40
2018-01-02T09:44:22.073Z,14.30
2018-01-02T09:45:20.956Z,15.80
2018-01-02T09:46:21.990Z,15.80
2018-01-02T09:47:20.965Z,19.50
2018-01-02T09:48:23.019Z,19.30
2018-01-02T09:49:20.969Z,19.70
2018-01-02T09:50:22.009Z,17.60
2018-01-02T09:51:20.970Z,18.20
2018-01-02T09:52:21.000Z,19.90
2018-01-02T09:53:20.972Z,20.90
2018-01-02T09:54:23.062Z,20.80
2018-01-02T09:55:20.977Z,17.30
2018-01-02T09:56:22.052Z,16.50
2018-01-02T09:57:20.982Z,15.10
2018-01-02T09:58:21.047Z,15.70
2018-01-02T09:59:21.002Z,9.60
2018-01-02T10:00:22.100Z,16.80
2018-01-02T10:01:20.996Z,14.90
2018-01-02T10:02:21.068Z,15.00
2018-01-02T10:03:20.998Z,17.40
2018-01-02T10:04:21.086Z,15.00
2018-01-02T10:05:21.003Z,14.70
2018-01-02T10:06:21.100Z,11.30
2018-01-02T10:07:21.007Z,19.30
2018-01-02T10:08:25.817Z,13.30
2018-01-02T10:09:21.413Z,14.40
2018-01-02T10:10:23.955Z,11.60
2018-01-02T10:11:21.022Z,14.20
2018-01-02T10:12:21.151Z,11.40
2018-01-02T10:13:21.032Z,10.40
2018-01-02T10:14:22.194Z,16.90
2018-01-02T10:15:21.026Z,12.80
2018-01-02T10:16:25.829Z,13.30
2018-01-02T10:17:21.282Z,13.40
2018-01-02T10:18:26.078Z,16.90
2018-01-02T10:19:21.032Z,15.60
2018-01-02T10:20:23.076Z,14.80
2018-01-02T10:21:21.040Z,13.50
2018-01-02T10:22:32.819Z,14.70
2018-01-02T10:23:22.811Z,15.60
2018-01-02T10:24:21.058Z,20.10
2018-01-02T10:25:21.045Z,13.30
2018-01-02T10:26:23.114Z,16.20
2018-01-02T10:27:21.055Z,11.20
2018-01-02T10:28:22.104Z,14.10
2018-01-02T10:29:21.053Z,8.60
2018-01-02T10:30:21.101Z,13.30
2018-01-02T10:31:21.060Z,11.00
2018-01-02T10:32:21.109Z,13.70
2018-01-02T10:33:21.060Z,15.80
2018-01-02T10:34:35.869Z,15.70
2018-01-02T10:35:21.072Z,10.40
2018-01-02T10:36:21.131Z,15.40
2018-01-02T10:37:21.074Z,11.00
2018-01-02T10:38:22.083Z,12.90
2018-01-02T10:39:21.078Z,11.20
2018-01-02T10:40:25.867Z,14.70
2018-01-02T10:41:21.083Z,10.50
2018-01-02T10:42:35.816Z,14.10
2018-01-02T10:43:21.095Z,10.70
2018-01-02T10:44:23.134Z,8.20
2018-01-02T10:45:21.095Z,12.60
2018-01-02T10:46:21.196Z,12.90
2018-01-02T10:47:21.098Z,9.70
2018-01-02T10:48:37.899Z,8.90
2018-01-02T10:49:21.102Z,11.00
2018-01-02T10:50:25.828Z,10.40
2018-01-02T10:51:21.105Z,12.40
2018-01-02T10:52:46.834Z,9.30
2018-01-02T10:53:21.117Z,7.00
2018-01-02T10:54:21.145Z,11.20
2018-01-02T10:55:21.111Z,12.60
2018-01-02T10:56:50.957Z,14.90
2018-01-02T10:57:21.122Z,11.00
2018-01-02T10:58:37.061Z,14.40
2018-01-02T10:59:21.124Z,9.80
2018-01-02T11:00:36.850Z,12.30
2018-01-02T11:01:21.126Z,10.90
2018-01-02T11:02:21.196Z,10.10
2018-01-02T11:03:21.131Z,10.20
2018-01-02T11:04:21.209Z,11.60
2018-01-02T11:05:21.136Z,12.10
2018-01-02T11:06:22.264Z,10.00
2018-01-02T11:07:21.154Z,9.90
2018-01-02T11:08:21.234Z,14.00
2018-01-02T11:09:21.148Z,15.80
2018-01-02T11:10:36.813Z,11.40
2018-01-02T11:11:21.150Z,12.00
2018-01-02T11:12:22.196Z,12.60
2018-01-02T11:13:21.153Z,11.00
2018-01-02T11:14:27.827Z,8.80
2018-01-02T11:15:21.163Z,14.60
2018-01-02T11:16:21.183Z,11.20
2018-01-02T11:17:21.160Z,10.30
2018-01-02T11:18:22.240Z,9.80
2018-01-02T11:19:21.166Z,7.80
2018-01-02T11:20:27.868Z,10.90
2018-01-02T11:21:21.169Z,9.40
2018-01-02T11:22:22.248Z,9.20
2018-01-02T11:23:21.177Z,9.40
2018-01-02T11:24:21.239Z,15.20
2018-01-02T11:25:21.179Z,13.60
2018-01-02T11:26:21.251Z,9.90
2018-01-02T11:27:21.184Z,9.40
2018-01-02T11:28:21.262Z,9.90
2018-01-02T11:29:21.321Z,12.50
2018-01-02T11:30:21.291Z,10.10
2018-01-02T11:31:21.223Z,10.20
2018-01-02T11:32:26.918Z,10.00
2018-01-02T11:33:21.204Z,12.00
2018-01-02T11:34:22.220Z,13.50
2018-01-02T11:35:21.213Z,8.50
2018-01-02T11:36:44.863Z,11.40
2018-01-02T11:37:21.223Z,11.40
2018-01-02T11:38:21.328Z,9.00
2018-01-02T11:39:21.231Z,13.90
2018-01-02T11:40:22.261Z,9.40
2018-01-02T11:41:21.214Z,10.20
2018-01-02T11:42:22.284Z,11.30
2018-01-02T11:43:21.225Z,11.60
2018-01-02T11:44:48.908Z,9.60
2018-01-02T11:45:21.231Z,10.80
2018-01-02T11:46:22.299Z,8.60
2018-01-02T11:47:21.238Z,13.70
2018-01-02T11:48:22.354Z,10.40
2018-01-02T11:49:21.240Z,12.20
2018-01-02T11:50:23.347Z,11.40
2018-01-02T11:51:21.242Z,12.30
2018-01-02T11:52:21.316Z,12.70
2018-01-02T11:53:21.300Z,12.40
2018-01-02T11:54:21.324Z,12.70
2018-01-02T11:55:21.246Z,11.80
2018-01-02T11:56:36.903Z,11.20
2018-01-02T11:57:21.277Z,12.40
2018-01-02T11:58:44.901Z,11.00
2018-01-02T11:59:21.366Z,12.60
2018-01-02T12:00:27.917Z,11.20
2018-01-02T12:01:21.272Z,12.10
2018-01-02T12:02:23.323Z,8.80
2018-01-02T12:03:21.278Z,9.60
2018-01-02T12:04:21.290Z,10.90
2018-01-02T12:05:21.274Z,8.90
2018-01-02T12:06:22.331Z,11.30
2018-01-02T12:07:21.277Z,13.50
2018-01-02T12:08:26.842Z,8.00
2018-01-02T12:09:21.279Z,10.10
2018-01-02T12:10:22.352Z,8.90
2018-01-02T12:11:21.283Z,10.40
2018-01-02T12:12:35.878Z,11.20
2018-01-02T12:13:21.294Z,12.20
2018-01-02T12:14:23.398Z,11.60
2018-01-02T12:15:21.314Z,9.80
2018-01-02T12:16:23.421Z,11.60
2018-01-02T12:17:21.300Z,10.20
2018-01-02T12:18:33.870Z,12.30
2018-01-02T12:19:21.300Z,9.70
2018-01-02T12:20:22.414Z,10.50
2018-01-02T12:21:21.313Z,16.20
2018-01-02T12:22:21.404Z,9.30
2018-01-02T12:23:21.315Z,9.10
2018-01-02T12:24:23.367Z,9.00
2018-01-02T12:25:21.353Z,10.80
2018-01-02T12:26:28.393Z,12.90
2018-01-02T12:27:21.351Z,10.40
2018-01-02T12:28:21.337Z,9.40
2018-01-02T12:29:21.325Z,11.30
2018-01-02T12:30:27.394Z,9.00
2018-01-02T12:31:21.327Z,10.40
2018-01-02T12:32:23.418Z,10.40
2018-01-02T12:33:21.345Z,15.30
2018-01-02T12:34:26.419Z,9.10
2018-01-02T12:35:21.343Z,13.00
2018-01-02T12:36:21.389Z,11.40
2018-01-02T12:37:21.350Z,15.80
2018-01-02T12:38:23.455Z,11.60
2018-01-02T12:39:21.357Z,15.60
2018-01-02T12:40:23.467Z,11.80
2018-01-02T12:41:21.355Z,9.80
2018-01-02T12:42:22.455Z,15.50
2018-01-02T12:43:21.359Z,11.00
2018-01-02T12:44:22.472Z,12.60
2018-01-02T12:45:21.364Z,13.10
2018-01-02T12:46:23.401Z,11.50
2018-01-02T12:47:21.368Z,9.30
2018-01-02T12:48:22.391Z,11.10
2018-01-02T12:49:21.375Z,10.10
2018-01-02T12:50:26.396Z,13.40
2018-01-02T12:51:21.376Z,8.60
2018-01-02T12:52:26.414Z,11.30
2018-01-02T12:53:21.381Z,13.30
2018-01-02T12:54:28.380Z,10.90
2018-01-02T12:55:21.387Z,11.20
2018-01-02T12:56:23.465Z,12.60
2018-01-02T12:57:21.387Z,10.40
2018-01-02T12:58:27.368Z,10.70
2018-01-02T12:59:21.397Z,7.70
2018-01-02T13:00:22.471Z,11.00
2018-01-02T13:01:21.402Z,10.20
2018-01-02T13:02:28.421Z,8.90
2018-01-02T13:03:21.513Z,9.30
2018-01-02T13:04:21.480Z,12.60
2018-01-02T13:05:21.422Z,8.70
2018-01-02T13:06:32.341Z,11.00
2018-01-02T13:07:21.414Z,10.20
2018-01-02T13:08:36.347Z,7.40
2018-01-02T13:09:21.421Z,13.20
2018-01-02T13:10:36.353Z,10.70
2018-01-02T13:11:21.423Z,10.20
2018-01-02T13:12:28.381Z,9.70
2018-01-02T13:13:21.423Z,10.00
2018-01-02T13:14:28.395Z,9.90
2018-01-02T13:15:21.434Z,8.70
2018-01-02T13:16:21.444Z,9.70
2018-01-02T13:17:21.446Z,10.30
2018-01-02T13:18:42.606Z,10.20
2018-01-02T13:19:21.447Z,9.40
2018-01-02T13:20:21.436Z,7.20
2018-01-02T13:21:32.430Z,11.60
2018-01-02T13:22:21.450Z,11.20
2018-01-02T13:23:21.492Z,11.20
2018-01-02T13:24:22.522Z,11.00
2018-01-02T13:25:34.419Z,9.70
2018-01-02T13:26:36.359Z,9.50
2018-01-02T13:27:21.466Z,10.80
2018-01-02T13:28:21.461Z,7.50
2018-01-02T13:29:21.463Z,9.70
2018-01-02T13:30:26.398Z,6.20
2018-01-02T13:31:21.468Z,12.90
2018-01-02T13:32:28.555Z,11.40
2018-01-02T13:33:21.472Z,6.80
2018-01-02T13:34:34.414Z,11.20
2018-01-02T13:35:21.477Z,9.80
2018-01-02T14:06:20.242Z,11.60
2018-01-02T14:07:12.351Z,9.10
2018-01-02T14:08:12.458Z,14.90
2018-01-02T14:09:12.335Z,11.90
2018-01-02T14:10:12.338Z,12.00
2018-01-02T14:11:14.346Z,11.10
2018-01-02T14:12:12.332Z,10.70
2018-01-02T14:13:12.781Z,10.00
2018-01-02T14:14:12.342Z,13.40
2018-01-02T14:15:18.240Z,14.00
2018-01-02T14:16:12.689Z,14.50
2018-01-02T14:17:13.017Z,13.50
2018-01-02T14:18:12.350Z,14.60
2018-01-02T14:19:12.359Z,14.70
2018-01-02T14:20:12.361Z,10.80
2018-01-02T14:21:13.364Z,14.90
2018-01-02T14:22:12.374Z,13.00
2018-01-02T14:23:12.421Z,14.20
2018-01-02T14:24:12.365Z,18.20
2018-01-02T14:25:13.380Z,14.70
2018-01-02T14:26:12.369Z,17.20